Kezdőlap
METAR-TAF:

METAR-TAF

Repülőterek :

Pattaya-Rayong, Thaiföld

földrajzi szélesség: 12-38N, földrajzi hosszúság: 101-21E, magasság: 3 m

Jelenlegi meteorológiai megfigyelések

A jelentés 43 perccel ezelõtt készült, 19:30 UTC
Északnyugati szél 3 kt
Hőmérséklet 30°C
Páratartalom 79%
Légköri nyomás 1006 hPa
Látótávolság 10 km, vagy több
Kevés felhő 2000 lábon

METAR: VTBU 151930Z 32003KT 9999 FEW020 30/26 Q1006 NOSIG

Idő: 03:13 (20:13 UTC)

Előrejelzés

A jelentés 3 órával és 13 perccel ezelõtt készült, 17:00 UTC
Az előrejelzés 15-én 18 óra UTC és 16-én 18 óra UTC között érvényes
Délnyugati szél 4 kt
Látótávolság 10 km, vagy több
Kevés felhő 2000 lábon
15-én 18 óra UTC és 15-én 20 óra UTC között fokozatosan kialakuló
Északnyugati szél 4 kt
16-én 00 óra UTC és 16-én 02 óra UTC között fokozatosan kialakuló
Délnyugati szél 8 kt

TAF: VTBU 151700Z 1518/1618 23004KT 9999 FEW020 BECMG 1518/1520 32004KT BECMG 1600/1602 23008KT

Meteorológiai megfigyelések és előrejelzések több, mint 4000 repülőtéren (METAR és TAF jelentéseket).

A térképen piros és sárga pontok jelzik az elérhető meteorológiai állomásokat.

Mozgassa az egeret a pont fölött, hogy megjelenjen az állomás neve.

Azután kattintson az időjárási megfigyelések és előrejelzések megtekintéséhez.

A térkép megváltoztatása: kattintson a fekete keresztel jelölt zöld gombra ráközelítéshez, a vonallal jelölt zöld gombra távolításhoz, vagy a zöld nyilakra a szomszédos térképek eléréséhez.


METAR-TAF: